Weather History for Hot Springs, VA

Change the Weather History Date:

Tuesday, December 4, 2012

  Actual Average Record
Temperature  
Mean Temperature 55 °F -  
Max Temperature 60 °F 39 °F 64 °F (2001)
Min Temperature 50 °F 27 °F 10 °F (2002)
Degree Days  
Heating Degree Days 10    
Growing Degree Days 5 (Base 50)    
Moisture  
Dew Point 46 °F    
Average Humidity 75    
Maximum Humidity 87    
Minimum Humidity 59    
Precipitation  
Precipitation 0.00 in - - ()
Sea Level Pressure  
Sea Level Pressure 30.27 in    
Wind  
Wind Speed 11 mph (WSW)    
Max Wind Speed 22 mph    
Max Gust Speed 30 mph    
Visibility 10 miles    
Events      
Averages and records for this station are not official NWS values.
T = Trace of Precipitation, MM = Missing Value Source: NWS Daily Summary

Daily Weather History Graph

Daily Weather History Graph

Search for Another Location

Airport:

Trip Planner

Search our weather history database for the weather conditions in past years. The results will help you decide how hot, cold, wet, or windy it might be!

Date:

Astronomy

Dec. 04, 2012 Rise Set
Actual Time 7:19 AM EST 4:59 PM EST
Civil Twilight 6:50 AM EST 5:28 PM EST
Nautical Twilight 6:17 AM EST 6:01 PM EST
Astronomical Twilight 5:45 AM EST 6:33 PM EST
Moon 10:41 PM EST (12/4) 11:16 AM EST (12/4)
Length of Visible Light 10h 38m
Length of Day
9h 40m
Waning Gibbous, 69% of the Moon is Illuminated
Dec 4
Waning Gibbous
Dec 6
Last Quarter
Dec 13
New
Dec 20
First Quarter
Dec 28
Full

Hourly Weather History & Observations

Time (EST) Temp. Dew Point Humidity Pressure Visibility Wind Dir Wind Speed Gust Speed Precip Events Conditions
12:15 AM 53.6 °F 46.4 °F 77% 30.33 in 10.0 mi SW 8.1 mph - N/A   Clear
12:35 AM 51.8 °F 46.4 °F 82% 30.32 in 10.0 mi SW 5.8 mph - N/A   Clear
12:55 AM 53.6 °F 46.4 °F 77% 30.32 in 10.0 mi SW 9.2 mph - N/A   Clear
1:15 AM 51.8 °F 46.4 °F 82% 30.32 in 10.0 mi SW 10.4 mph - N/A   Clear
1:35 AM 51.8 °F 46.4 °F 82% 30.32 in 10.0 mi WSW 10.4 mph - N/A   Clear
1:55 AM 51.8 °F 46.4 °F 82% 30.32 in 10.0 mi SW 12.7 mph - N/A   Clear
2:15 AM 51.8 °F 46.4 °F 82% 30.32 in 10.0 mi SW 9.2 mph - N/A   Clear
2:35 AM 51.8 °F 46.4 °F 82% 30.32 in 10.0 mi SW 12.7 mph - N/A   Clear
2:55 AM 51.8 °F 46.4 °F 82% 30.32 in 10.0 mi SW 11.5 mph - N/A   Clear
3:15 AM 51.8 °F 46.4 °F 82% 30.32 in 10.0 mi WSW 11.5 mph - N/A   Clear
3:55 AM 51.8 °F 46.4 °F 82% 30.31 in 10.0 mi WSW 11.5 mph - N/A   Clear
4:15 AM 51.8 °F 46.4 °F 82% 30.31 in 10.0 mi West 11.5 mph - N/A   Clear
4:35 AM 51.8 °F 46.4 °F 82% 30.31 in 10.0 mi West 13.8 mph - N/A   Clear
4:55 AM 51.8 °F 46.4 °F 82% 30.32 in 10.0 mi West 13.8 mph - N/A   Clear
5:15 AM 51.8 °F 46.4 °F 82% 30.32 in 10.0 mi West 13.8 mph - N/A   Clear
5:35 AM 51.8 °F 46.4 °F 82% 30.31 in 10.0 mi West 12.7 mph - N/A   Clear
5:55 AM 51.8 °F 46.4 °F 82% 30.31 in 10.0 mi West 13.8 mph - N/A   Clear
6:15 AM 51.8 °F 46.4 °F 82% 30.31 in 10.0 mi West 12.7 mph - N/A   Clear
6:35 AM 51.8 °F 46.4 °F 82% 30.31 in 10.0 mi West 13.8 mph - N/A   Clear
6:55 AM 50.0 °F 46.4 °F 87% 30.32 in 10.0 mi West 11.5 mph - N/A   Clear
7:15 AM 51.8 °F 46.4 °F 82% 30.32 in 10.0 mi West 12.7 mph - N/A   Clear
7:35 AM 51.8 °F 44.6 °F 76% 30.32 in 10.0 mi West 11.5 mph - N/A   Clear
7:55 AM 51.8 °F 46.4 °F 82% 30.32 in 10.0 mi West 11.5 mph - N/A   Clear
8:15 AM 51.8 °F 46.4 °F 82% 30.32 in 10.0 mi West 11.5 mph - N/A   Clear
8:35 AM 53.6 °F 46.4 °F 77% 30.33 in 10.0 mi West 11.5 mph - N/A   Clear
8:55 AM 53.6 °F 46.4 °F 77% 30.33 in 10.0 mi West 9.2 mph - N/A   Clear
9:15 AM 53.6 °F 46.4 °F 77% 30.33 in 10.0 mi West 10.4 mph - N/A   Clear
9:35 AM 53.6 °F 46.4 °F 77% 30.33 in 10.0 mi WSW 10.4 mph - N/A   Clear
9:55 AM 53.6 °F 46.4 °F 77% 30.34 in 10.0 mi WSW 9.2 mph - N/A   Clear
10:15 AM 55.4 °F 46.4 °F 72% 30.33 in 10.0 mi WSW 9.2 mph - N/A   Clear
10:35 AM 55.4 °F 46.4 °F 72% 30.33 in 10.0 mi WSW 9.2 mph - N/A   Clear
10:55 AM 55.4 °F 46.4 °F 72% 30.32 in 10.0 mi WSW 12.7 mph - N/A   Clear
11:15 AM 55.4 °F 46.4 °F 72% 30.31 in 10.0 mi WSW 11.5 mph - N/A   Clear
11:35 AM 57.2 °F 46.4 °F 67% 30.30 in 10.0 mi West 13.8 mph - N/A   Clear
11:55 AM 57.2 °F 46.4 °F 67% 30.29 in 10.0 mi WSW 8.1 mph - N/A   Scattered Clouds
12:15 PM 57.2 °F 46.4 °F 67% 30.28 in 10.0 mi SW 10.4 mph - N/A   Clear
12:35 PM 59.0 °F 46.4 °F 63% 30.27 in 10.0 mi West 9.2 mph - N/A   Clear
12:55 PM 59.0 °F 46.4 °F 63% 30.26 in 10.0 mi WSW 13.8 mph - N/A   Clear
1:15 PM 59.0 °F 46.4 °F 63% 30.26 in 10.0 mi WSW 11.5 mph 17.3 mph N/A   Clear
1:35 PM 59.0 °F 46.4 °F 63% 30.25 in 10.0 mi WSW 11.5 mph - N/A   Clear
1:55 PM 59.0 °F 46.4 °F 63% 30.24 in 10.0 mi WSW 9.2 mph - N/A   Clear
2:15 PM 59.0 °F 46.4 °F 63% 30.23 in 10.0 mi SW 10.4 mph - N/A   Clear
2:35 PM 60.8 °F 46.4 °F 59% 30.23 in 10.0 mi WSW 12.7 mph 17.3 mph N/A   Clear
2:55 PM 57.2 °F 46.4 °F 67% 30.23 in 10.0 mi WSW 10.4 mph 16.1 mph N/A   Clear
3:15 PM 59.0 °F 46.4 °F 63% 30.23 in 10.0 mi WSW 11.5 mph - N/A   Clear
3:35 PM 57.2 °F 46.4 °F 67% 30.22 in 10.0 mi SW 8.1 mph 17.3 mph N/A   Clear
3:55 PM 55.4 °F 48.2 °F 77% 30.23 in 10.0 mi South 5.8 mph - N/A   Mostly Cloudy
4:15 PM 55.4 °F 48.2 °F 77% 30.23 in 10.0 mi South 5.8 mph - N/A   Overcast
4:35 PM 55.4 °F 46.4 °F 72% 30.23 in 10.0 mi SSW 6.9 mph - N/A   Overcast
4:55 PM 55.4 °F 46.4 °F 72% 30.22 in 10.0 mi SW 4.6 mph - N/A   Overcast
5:15 PM 55.4 °F 46.4 °F 72% 30.22 in 10.0 mi SW 5.8 mph - N/A   Mostly Cloudy
5:35 PM 55.4 °F 44.6 °F 67% 30.23 in 10.0 mi SW 5.8 mph - N/A   Scattered Clouds
5:55 PM 55.4 °F 46.4 °F 72% 30.22 in 10.0 mi SSW 6.9 mph - N/A   Scattered Clouds
6:15 PM 55.4 °F 46.4 °F 72% 30.22 in 10.0 mi SW 9.2 mph 18.4 mph N/A   Mostly Cloudy
6:35 PM 55.4 °F 46.4 °F 72% 30.22 in 10.0 mi SW 13.8 mph 19.6 mph N/A   Scattered Clouds
6:55 PM 55.4 °F 46.4 °F 72% 30.22 in 10.0 mi SW 12.7 mph 19.6 mph N/A   Scattered Clouds
7:15 PM 55.4 °F 46.4 °F 72% 30.22 in 10.0 mi WSW 16.1 mph 21.9 mph N/A   Mostly Cloudy
7:35 PM 55.4 °F 46.4 °F 72% 30.21 in 10.0 mi WSW 11.5 mph 19.6 mph N/A   Overcast
7:55 PM 55.4 °F 46.4 °F 72% 30.20 in 10.0 mi WSW 13.8 mph - N/A   Overcast
8:15 PM 55.4 °F 46.4 °F 72% 30.20 in 10.0 mi WSW 16.1 mph 21.9 mph N/A   Overcast
8:35 PM 55.4 °F 46.4 °F 72% 30.20 in 10.0 mi WSW 15.0 mph - N/A   Overcast
8:55 PM 55.4 °F 46.4 °F 72% 30.20 in 10.0 mi WSW 16.1 mph 20.7 mph N/A   Overcast
9:15 PM 53.6 °F 46.4 °F 77% 30.20 in 10.0 mi WSW 13.8 mph - N/A   Overcast
9:35 PM 53.6 °F 46.4 °F 77% 30.20 in 10.0 mi WSW 17.3 mph 21.9 mph N/A   Overcast
9:55 PM 53.6 °F 46.4 °F 77% 30.19 in 10.0 mi WSW 15.0 mph 25.3 mph N/A   Overcast
10:15 PM 53.6 °F 46.4 °F 77% 30.19 in 10.0 mi WSW 15.0 mph 21.9 mph N/A   Overcast
10:35 PM 53.6 °F 46.4 °F 77% 30.19 in 10.0 mi WSW 17.3 mph 23.0 mph N/A   Overcast
10:55 PM 53.6 °F 46.4 °F 77% 30.17 in 10.0 mi WSW 17.3 mph 23.0 mph N/A   Overcast
11:15 PM 53.6 °F 46.4 °F 77% 30.17 in 10.0 mi WSW 21.9 mph 25.3 mph N/A   Scattered Clouds
11:35 PM 53.6 °F 46.4 °F 77% 30.17 in 10.0 mi WSW 21.9 mph 29.9 mph N/A   Mostly Cloudy
11:55 PM 53.6 °F 46.4 °F 77% 30.16 in 10.0 mi West 21.9 mph 28.8 mph N/A   Overcast